createdAt,value
2022-09-07T00:01:47.165Z,16.48
2022-09-07T00:04:17.821Z,14.55
2022-09-07T00:06:47.763Z,11.57
2022-09-07T00:09:17.888Z,10.63
2022-09-07T00:11:48.376Z,18.58
2022-09-07T00:14:18.428Z,12.75
2022-09-07T00:16:48.358Z,10.68
2022-09-07T00:19:18.515Z,16.05
2022-09-07T00:21:48.516Z,12.40
2022-09-07T00:24:18.475Z,18.25
2022-09-07T00:26:48.455Z,17.13
2022-09-07T00:29:18.360Z,15.13
2022-09-07T00:31:48.485Z,13.32
2022-09-07T00:34:18.236Z,18.65
2022-09-07T00:36:48.107Z,13.50
2022-09-07T00:39:17.804Z,16.35
2022-09-07T00:41:47.436Z,18.75
2022-09-07T00:44:56.128Z,14.32
2022-09-07T00:47:35.224Z,25.38
2022-09-07T00:50:13.377Z,15.05
2022-09-07T00:52:46.466Z,14.65
2022-09-07T00:55:18.122Z,18.55
2022-09-07T00:57:52.652Z,17.48
2022-09-07T01:00:22.515Z,16.38
2022-09-07T01:02:56.134Z,15.95
2022-09-07T01:05:41.127Z,12.30
2022-09-07T01:08:11.489Z,16.20
2022-09-07T01:10:42.071Z,13.95
2022-09-07T01:13:11.977Z,15.98
2022-09-07T01:16:18.629Z,21.10
2022-09-07T01:19:08.296Z,12.93
2022-09-07T01:22:17.256Z,13.82
2022-09-07T01:25:21.878Z,12.80
2022-09-07T01:28:14.083Z,14.32
2022-09-07T01:30:56.614Z,15.70
2022-09-07T01:34:05.347Z,16.00
2022-09-07T01:37:03.245Z,12.93
2022-09-07T01:39:46.668Z,14.18
2022-09-07T01:42:21.974Z,13.02
2022-09-07T01:44:59.914Z,12.05
2022-09-07T01:50:34.196Z,20.70
2022-09-07T01:53:16.978Z,14.45
2022-09-07T01:56:00.465Z,12.88
2022-09-07T01:58:59.568Z,16.70
2022-09-07T02:01:51.918Z,16.05
2022-09-07T02:04:29.055Z,11.75
2022-09-07T02:07:11.054Z,15.73
2022-09-07T02:10:05.386Z,12.68
2022-09-07T02:12:57.216Z,14.82
2022-09-07T02:15:34.883Z,14.68
2022-09-07T02:18:08.188Z,15.15
2022-09-07T02:20:41.334Z,12.23
2022-09-07T02:23:33.865Z,14.43
2022-09-07T02:26:12.377Z,14.65
2022-09-07T02:28:42.357Z,17.70
2022-09-07T02:31:12.160Z,25.45
2022-09-07T02:33:42.688Z,15.32
2022-09-07T02:36:14.085Z,16.48
2022-09-07T02:38:44.190Z,17.25
2022-09-07T02:41:35.443Z,18.45
2022-09-07T02:44:15.805Z,19.33
2022-09-07T02:47:24.474Z,18.02
2022-09-07T02:50:33.434Z,17.60
2022-09-07T02:53:42.074Z,18.35
2022-09-07T02:56:37.430Z,16.38
2022-09-07T02:59:46.145Z,22.05
2022-09-07T03:02:55.040Z,22.38
2022-09-07T03:05:47.047Z,17.90
2022-09-07T03:08:24.445Z,19.08
2022-09-07T03:10:56.229Z,21.40
2022-09-07T03:13:30.049Z,20.83
2022-09-07T03:15:59.888Z,23.10
2022-09-07T03:18:30.791Z,23.35
2022-09-07T03:21:00.767Z,23.95
2022-09-07T03:23:30.422Z,19.27
2022-09-07T03:26:00.051Z,21.70
2022-09-07T03:28:29.908Z,16.25
2022-09-07T03:30:59.749Z,18.42
2022-09-07T03:33:29.387Z,18.50
2022-09-07T03:36:04.214Z,20.02
2022-09-07T03:38:34.104Z,18.75
2022-09-07T03:41:06.064Z,19.27
2022-09-07T03:43:41.750Z,19.55
2022-09-07T03:46:12.785Z,17.92
2022-09-07T03:48:42.815Z,21.15
2022-09-07T03:51:14.607Z,17.55
2022-09-07T03:53:47.817Z,18.30
2022-09-07T03:56:26.527Z,20.25
2022-09-07T03:58:57.272Z,25.40
2022-09-07T04:01:28.712Z,18.30
2022-09-07T04:04:02.343Z,15.85
2022-09-07T04:06:33.218Z,19.77
2022-09-07T04:09:07.902Z,21.52
2022-09-07T04:11:37.557Z,17.02
2022-09-07T04:14:07.716Z,17.35
2022-09-07T04:16:37.444Z,19.90
2022-09-07T04:19:07.374Z,19.75
2022-09-07T04:21:37.129Z,19.02
2022-09-07T04:24:06.958Z,19.08
2022-09-07T04:26:40.278Z,17.30
2022-09-07T04:29:10.367Z,17.88
2022-09-07T04:31:40.589Z,16.85
2022-09-07T04:34:10.418Z,18.02
2022-09-07T04:36:40.065Z,18.73
2022-09-07T04:39:09.663Z,18.17
2022-09-07T04:41:39.310Z,20.08
2022-09-07T04:44:09.733Z,17.80
2022-09-07T04:46:41.327Z,16.40
2022-09-07T04:49:12.733Z,18.65
2022-09-07T04:51:44.577Z,22.13
2022-09-07T04:54:14.314Z,16.23
2022-09-07T04:56:43.915Z,30.95
2022-09-07T04:59:13.693Z,22.13
2022-09-07T05:01:43.421Z,18.73
2022-09-07T05:04:13.088Z,17.88
2022-09-07T05:06:44.018Z,17.55
2022-09-07T05:09:14.287Z,17.52
2022-09-07T05:11:43.874Z,20.63
2022-09-07T05:14:13.907Z,18.67
2022-09-07T05:16:43.581Z,17.83
2022-09-07T05:19:14.825Z,21.15
2022-09-07T05:21:44.429Z,16.10
2022-09-07T05:24:14.086Z,20.77
2022-09-07T05:26:43.873Z,20.90
2022-09-07T05:32:03.437Z,18.90
2022-09-07T05:34:36.097Z,18.17
2022-09-07T05:37:05.724Z,18.02
2022-09-07T05:39:35.452Z,18.60
2022-09-07T05:42:05.313Z,18.88
2022-09-07T05:44:50.150Z,20.48
2022-09-07T05:47:19.683Z,19.20
2022-09-07T05:49:50.339Z,19.35
2022-09-07T05:52:20.664Z,22.98
2022-09-07T05:54:50.288Z,16.95
2022-09-07T05:57:19.854Z,17.90
2022-09-07T05:59:49.427Z,15.77
2022-09-07T06:02:19.195Z,20.30
2022-09-07T06:04:49.306Z,21.88
2022-09-07T06:07:22.037Z,17.75
2022-09-07T06:12:49.264Z,16.13
2022-09-07T06:15:20.414Z,19.77
2022-09-07T06:17:50.481Z,23.58
2022-09-07T06:20:20.435Z,17.13
2022-09-07T06:22:50.405Z,18.95
2022-09-07T06:25:20.428Z,20.25
2022-09-07T06:27:51.155Z,19.38
2022-09-07T06:30:21.357Z,18.25
2022-09-07T06:32:51.327Z,19.75
2022-09-07T06:35:21.264Z,31.98
2022-09-07T06:37:51.085Z,20.52
2022-09-07T06:40:21.007Z,19.35
2022-09-07T06:42:50.977Z,20.08
2022-09-07T06:45:20.937Z,21.20
2022-09-07T06:47:50.937Z,21.60
2022-09-07T06:50:20.955Z,18.08
2022-09-07T06:55:47.535Z,22.70
2022-09-07T06:58:17.507Z,20.92
2022-09-07T07:00:47.528Z,19.75
2022-09-07T07:03:17.711Z,18.13
2022-09-07T07:05:55.454Z,19.23
2022-09-07T07:08:27.406Z,17.73
2022-09-07T07:10:57.979Z,18.17
2022-09-07T07:13:27.739Z,21.77
2022-09-07T07:16:08.754Z,20.02
2022-09-07T07:18:39.174Z,23.92
2022-09-07T07:21:14.045Z,19.60
2022-09-07T07:23:44.207Z,29.25
2022-09-07T07:26:19.513Z,19.92
2022-09-07T07:31:30.154Z,19.77
2022-09-07T07:33:59.863Z,20.45
2022-09-07T07:36:30.174Z,18.20
2022-09-07T07:39:00.991Z,19.42
2022-09-07T07:44:23.282Z,19.45
2022-09-07T07:46:53.681Z,17.67
2022-09-07T07:49:23.330Z,18.15
2022-09-07T07:54:41.114Z,18.88
2022-09-07T07:57:10.789Z,16.65
2022-09-07T07:59:41.034Z,19.92
2022-09-07T08:02:16.825Z,19.23
2022-09-07T08:04:46.538Z,21.10
2022-09-07T08:07:17.416Z,20.42
2022-09-07T08:09:49.094Z,18.13
2022-09-07T08:12:21.705Z,21.58
2022-09-07T08:14:51.445Z,21.33
2022-09-07T08:17:21.276Z,17.90
2022-09-07T08:19:50.857Z,21.20
2022-09-07T08:22:20.666Z,20.70
2022-09-07T08:24:50.817Z,19.17
2022-09-07T08:27:22.455Z,21.20
2022-09-07T08:29:52.445Z,18.30
2022-09-07T08:32:21.986Z,19.77
2022-09-07T08:34:51.587Z,22.02
2022-09-07T08:37:21.187Z,18.38
2022-09-07T08:39:50.759Z,20.17
2022-09-07T08:42:38.185Z,19.92
2022-09-07T08:45:16.336Z,23.48
2022-09-07T08:47:52.016Z,17.80
2022-09-07T08:50:37.786Z,20.75
2022-09-07T08:53:18.272Z,20.38
2022-09-07T08:56:11.403Z,17.88
2022-09-07T08:58:55.915Z,19.00
2022-09-07T09:01:42.490Z,20.98
2022-09-07T09:04:32.672Z,22.13
2022-09-07T09:07:33.315Z,30.65
2022-09-07T09:10:42.096Z,24.67
2022-09-07T09:13:24.434Z,22.42
2022-09-07T09:16:07.684Z,18.35
2022-09-07T09:19:07.944Z,18.48
2022-09-07T09:21:38.003Z,16.70
2022-09-07T09:24:19.037Z,23.58
2022-09-07T09:26:54.785Z,15.27
2022-09-07T09:29:26.224Z,16.92
2022-09-07T09:31:56.223Z,20.70
2022-09-07T09:34:29.332Z,18.90
2022-09-07T09:37:01.335Z,18.27
2022-09-07T09:39:38.361Z,19.45
2022-09-07T09:42:25.203Z,17.98
2022-09-07T09:44:55.614Z,26.88
2022-09-07T09:47:37.677Z,19.88
2022-09-07T09:53:34.436Z,17.80
2022-09-07T09:56:06.885Z,21.40
2022-09-07T10:04:36.923Z,24.60
2022-09-07T10:07:30.465Z,20.48
2022-09-07T10:10:00.823Z,20.17
2022-09-07T10:12:39.364Z,18.55
2022-09-07T10:15:26.584Z,18.20
2022-09-07T10:17:56.977Z,27.58
2022-09-07T10:20:39.303Z,18.00
2022-09-07T10:23:20.858Z,20.58
2022-09-07T10:25:51.048Z,17.95
2022-09-07T10:28:24.268Z,17.63
2022-09-07T10:31:29.666Z,24.67
2022-09-07T10:34:26.880Z,18.95
2022-09-07T10:37:07.603Z,26.30
2022-09-07T10:39:54.001Z,19.42
2022-09-07T10:42:37.484Z,16.83
2022-09-07T10:45:27.325Z,18.55
2022-09-07T10:48:27.513Z,19.50
2022-09-07T10:51:13.688Z,24.30
2022-09-07T10:54:36.248Z,29.85
2022-09-07T10:57:29.744Z,21.00
2022-09-07T11:00:14.159Z,23.42
2022-09-07T11:03:27.591Z,25.00
2022-09-07T11:06:22.102Z,27.10
2022-09-07T11:09:24.765Z,24.00
2022-09-07T11:12:12.222Z,23.20
2022-09-07T11:14:52.354Z,19.52
2022-09-07T11:17:29.933Z,26.75
2022-09-07T11:20:39.175Z,22.13
2022-09-07T11:23:45.504Z,26.90
2022-09-07T11:26:41.455Z,23.15
2022-09-07T11:29:36.218Z,28.38
2022-09-07T11:32:28.074Z,25.85
2022-09-07T11:35:09.213Z,20.95
2022-09-07T11:38:00.874Z,22.42
2022-09-07T11:40:38.403Z,23.42
2022-09-07T11:43:32.103Z,25.30
2022-09-07T11:46:29.998Z,21.70
2022-09-07T11:49:03.348Z,26.30
2022-09-07T11:51:54.365Z,19.35
2022-09-07T11:54:37.764Z,19.13
2022-09-07T11:57:36.353Z,28.10
2022-09-07T12:00:22.485Z,21.70
2022-09-07T12:03:24.862Z,25.90
2022-09-07T12:06:33.576Z,23.20
2022-09-07T12:09:42.333Z,28.17
2022-09-07T12:12:48.916Z,30.25
2022-09-07T12:15:48.365Z,29.73
2022-09-07T12:18:47.684Z,30.83
2022-09-07T12:21:56.463Z,23.42
2022-09-07T12:24:46.230Z,27.08
2022-09-07T12:27:39.711Z,26.23
2022-09-07T12:30:48.453Z,27.83
2022-09-07T12:33:28.793Z,30.15
2022-09-07T12:36:00.676Z,30.00
2022-09-07T12:39:09.422Z,29.00
2022-09-07T12:42:36.708Z,23.67
2022-09-07T12:45:45.841Z,27.48
2022-09-07T12:48:48.395Z,30.77
2022-09-07T12:55:04.476Z,27.95
2022-09-07T12:58:04.463Z,28.00
2022-09-07T13:01:10.650Z,25.75
2022-09-07T13:04:17.134Z,28.77
2022-09-07T13:07:11.342Z,25.40
2022-09-07T13:09:43.453Z,29.83
2022-09-07T13:15:48.634Z,26.77
2022-09-07T13:18:41.084Z,30.02
2022-09-07T13:21:40.743Z,29.88
2022-09-07T13:24:47.773Z,32.53
2022-09-07T13:27:58.943Z,29.80
2022-09-07T13:30:52.291Z,32.35
2022-09-07T13:36:51.096Z,36.13
2022-09-07T13:39:27.675Z,40.15
2022-09-07T13:42:04.234Z,33.15
2022-09-07T13:44:37.466Z,29.80
2022-09-07T13:47:37.684Z,32.90
2022-09-07T13:50:50.126Z,29.88
2022-09-07T13:54:10.265Z,39.33
2022-09-07T13:57:09.555Z,32.40
2022-09-07T13:59:45.054Z,30.95
2022-09-07T14:02:36.342Z,30.95
2022-09-07T14:05:08.884Z,35.00
2022-09-07T14:07:46.024Z,35.50
2022-09-07T14:10:23.745Z,40.10
2022-09-07T14:13:15.535Z,30.42
2022-09-07T14:15:52.664Z,41.70
2022-09-07T14:18:33.352Z,34.70
2022-09-07T14:21:23.237Z,34.97
2022-09-07T14:23:58.915Z,34.45
2022-09-07T14:26:32.091Z,41.03
2022-09-07T14:29:05.004Z,42.83
2022-09-07T14:31:39.343Z,37.47
2022-09-07T14:34:11.873Z,41.08
2022-09-07T14:36:48.783Z,40.45
2022-09-07T14:39:23.197Z,46.78
2022-09-07T14:41:57.953Z,39.97
2022-09-07T14:44:38.948Z,39.35
2022-09-07T14:47:33.597Z,35.17
2022-09-07T14:50:10.803Z,35.33
2022-09-07T14:53:34.319Z,37.95
2022-09-07T14:58:35.059Z,35.33
2022-09-07T15:01:41.756Z,31.30
2022-09-07T15:04:34.847Z,41.38
2022-09-07T15:07:44.146Z,41.92
2022-09-07T15:10:42.389Z,30.50
2022-09-07T15:13:36.914Z,32.42
2022-09-07T15:16:10.488Z,31.27
2022-09-07T15:18:58.902Z,34.00
2022-09-07T15:21:43.943Z,32.38
2022-09-07T15:24:16.523Z,32.10
2022-09-07T15:27:03.318Z,30.90
2022-09-07T15:29:39.439Z,34.60
2022-09-07T15:32:12.307Z,30.70
2022-09-07T15:34:44.017Z,37.72
2022-09-07T15:40:22.265Z,31.00
2022-09-07T15:43:00.738Z,31.15
2022-09-07T15:45:36.325Z,29.85
2022-09-07T15:48:10.240Z,34.78
2022-09-07T15:50:41.899Z,28.17
2022-09-07T15:56:10.767Z,37.03
2022-09-07T15:58:44.423Z,34.60
2022-09-07T16:04:10.051Z,36.65
2022-09-07T16:06:48.144Z,35.58
2022-09-07T16:09:22.116Z,32.05
2022-09-07T16:11:53.420Z,31.45
2022-09-07T16:14:24.681Z,29.23
2022-09-07T16:19:47.326Z,31.30
2022-09-07T16:25:13.219Z,28.73
2022-09-07T16:27:48.323Z,30.67
2022-09-07T16:30:19.919Z,31.60
2022-09-07T16:32:52.458Z,32.58
2022-09-07T16:35:23.117Z,35.28
2022-09-07T16:40:45.987Z,31.75
2022-09-07T16:43:16.070Z,31.10
2022-09-07T16:48:38.002Z,38.85
2022-09-07T16:51:09.586Z,31.48
2022-09-07T16:53:41.574Z,34.75
2022-09-07T16:56:20.349Z,26.45
2022-09-07T16:58:53.948Z,30.75
2022-09-07T17:01:27.264Z,35.67
2022-09-07T17:04:00.411Z,26.98
2022-09-07T17:06:33.921Z,31.60
2022-09-07T17:09:03.997Z,35.33
2022-09-07T17:11:37.135Z,33.97
2022-09-07T17:14:08.273Z,32.42
2022-09-07T17:16:40.966Z,34.05
2022-09-07T17:19:30.355Z,28.73
2022-09-07T17:22:01.940Z,32.78
2022-09-07T17:24:32.782Z,31.63
2022-09-07T17:27:07.422Z,30.63
2022-09-07T17:29:37.848Z,32.10
2022-09-07T17:32:24.436Z,33.15
2022-09-07T17:34:54.839Z,35.70
2022-09-07T17:37:27.562Z,31.00
2022-09-07T17:39:57.220Z,26.88
2022-09-07T17:45:19.392Z,31.77
2022-09-07T17:47:51.160Z,29.75
2022-09-07T17:50:23.570Z,30.05
2022-09-07T17:52:53.315Z,26.75
2022-09-07T17:55:23.999Z,30.35
2022-09-07T17:57:53.611Z,33.15
2022-09-07T18:00:26.032Z,31.20
2022-09-07T18:02:55.766Z,26.00
2022-09-07T18:05:26.361Z,31.38
2022-09-07T18:07:56.495Z,29.15
2022-09-07T18:13:35.641Z,29.83
2022-09-07T18:16:14.042Z,32.08
2022-09-07T18:18:44.859Z,31.60
2022-09-07T18:21:21.274Z,30.08
2022-09-07T18:23:55.679Z,32.65
2022-09-07T18:26:26.954Z,32.58
2022-09-07T18:29:10.433Z,37.00
2022-09-07T18:31:47.628Z,36.53
2022-09-07T18:34:17.713Z,29.52
2022-09-07T18:36:47.379Z,35.47
2022-09-07T18:39:17.095Z,30.65
2022-09-07T18:41:51.696Z,29.38
2022-09-07T18:47:18.084Z,32.83
2022-09-07T18:49:51.811Z,29.90
2022-09-07T18:55:14.115Z,35.00
2022-09-07T18:57:44.967Z,33.53
2022-09-07T19:00:16.152Z,31.65
2022-09-07T19:02:51.022Z,35.60
2022-09-07T19:08:10.813Z,36.03
2022-09-07T19:10:41.022Z,32.08
2022-09-07T19:13:10.672Z,32.28
2022-09-07T19:15:40.403Z,38.50
2022-09-07T19:18:11.334Z,35.40
2022-09-07T19:20:41.110Z,31.30
2022-09-07T19:23:10.808Z,31.63
2022-09-07T19:25:44.041Z,39.42
2022-09-07T19:28:14.879Z,36.70
2022-09-07T19:30:44.724Z,33.08
2022-09-07T19:33:14.615Z,33.05
2022-09-07T19:35:45.831Z,34.78
2022-09-07T19:38:15.822Z,32.40
2022-09-07T19:40:46.016Z,34.08
2022-09-07T19:43:16.339Z,37.10
2022-09-07T19:45:46.202Z,38.53
2022-09-07T19:48:16.166Z,35.72
2022-09-07T19:50:52.048Z,36.72
2022-09-07T19:53:22.193Z,33.20
2022-09-07T19:55:52.373Z,26.75
2022-09-07T19:58:22.377Z,29.83
2022-09-07T20:00:52.415Z,26.85
2022-09-07T20:03:22.404Z,34.85
2022-09-07T20:05:52.383Z,34.67
2022-09-07T20:08:23.100Z,29.80
2022-09-07T20:10:53.142Z,29.13
2022-09-07T20:13:23.448Z,30.98
2022-09-07T20:15:53.449Z,34.70
2022-09-07T20:18:23.916Z,26.95
2022-09-07T20:20:53.813Z,30.88
2022-09-07T20:23:23.887Z,32.63
2022-09-07T20:26:04.661Z,30.92
2022-09-07T20:28:40.306Z,30.80
2022-09-07T20:31:13.204Z,30.17
2022-09-07T20:33:44.138Z,33.60
2022-09-07T20:36:19.282Z,31.88
2022-09-07T20:38:53.330Z,37.67
2022-09-07T20:41:31.875Z,30.23
2022-09-07T20:44:02.636Z,29.52
2022-09-07T20:46:33.364Z,29.67
2022-09-07T20:49:03.593Z,29.27
2022-09-07T20:51:33.310Z,28.65
2022-09-07T20:54:02.910Z,36.83
2022-09-07T20:56:32.930Z,31.60
2022-09-07T20:59:04.422Z,32.53
2022-09-07T21:01:36.775Z,32.90
2022-09-07T21:04:07.852Z,32.65
2022-09-07T21:06:37.445Z,30.50
2022-09-07T21:09:07.229Z,30.75
2022-09-07T21:11:38.177Z,32.17
2022-09-07T21:14:13.225Z,30.45
2022-09-07T21:16:44.249Z,29.85
2022-09-07T21:19:14.104Z,32.60
2022-09-07T21:21:44.876Z,33.95
2022-09-07T21:24:24.718Z,29.42
2022-09-07T21:26:54.833Z,34.60
2022-09-07T21:29:27.369Z,35.08
2022-09-07T21:31:57.476Z,30.80
2022-09-07T21:34:27.463Z,32.53
2022-09-07T21:36:57.356Z,36.55
2022-09-07T21:39:26.995Z,33.60
2022-09-07T21:41:56.618Z,31.23
2022-09-07T21:44:27.424Z,31.77
2022-09-07T21:46:57.441Z,34.45
2022-09-07T21:49:27.103Z,31.50
2022-09-07T21:51:56.665Z,33.30
2022-09-07T21:54:27.056Z,28.13
2022-09-07T21:56:56.616Z,31.92
2022-09-07T21:59:26.184Z,31.58
2022-09-07T22:01:55.920Z,27.55
2022-09-07T22:04:25.520Z,31.05
2022-09-07T22:06:55.270Z,29.58
2022-09-07T22:09:25.268Z,36.47
2022-09-07T22:11:54.876Z,29.83
2022-09-07T22:14:24.503Z,35.03
2022-09-07T22:16:54.273Z,27.95
2022-09-07T22:19:24.046Z,34.20
2022-09-07T22:21:55.014Z,38.45
2022-09-07T22:24:24.720Z,32.55
2022-09-07T22:26:55.066Z,31.77
2022-09-07T22:29:25.152Z,34.17
2022-09-07T22:31:55.856Z,32.83
2022-09-07T22:34:25.920Z,28.55
2022-09-07T22:36:55.945Z,30.90
2022-09-07T22:39:26.223Z,32.25
2022-09-07T22:41:56.280Z,29.08
2022-09-07T22:44:28.433Z,30.50
2022-09-07T22:46:58.601Z,28.20
2022-09-07T22:49:28.728Z,28.17
2022-09-07T22:51:58.727Z,30.85
2022-09-07T22:54:28.753Z,31.98
2022-09-07T22:56:58.750Z,30.88
2022-09-07T22:59:28.700Z,29.90
2022-09-07T23:01:58.787Z,29.73
2022-09-07T23:04:31.718Z,33.20
2022-09-07T23:07:02.003Z,29.73
2022-09-07T23:09:32.128Z,32.78
2022-09-07T23:12:02.217Z,26.77
2022-09-07T23:14:32.729Z,32.10
2022-09-07T23:17:02.682Z,28.48
2022-09-07T23:19:32.671Z,28.73
2022-09-07T23:22:02.754Z,30.05
2022-09-07T23:24:33.085Z,32.53
2022-09-07T23:27:02.695Z,29.45
2022-09-07T23:29:32.356Z,29.52
2022-09-07T23:32:02.005Z,29.20
2022-09-07T23:34:31.648Z,32.15
2022-09-07T23:37:01.300Z,35.17
2022-09-07T23:39:31.188Z,28.08
2022-09-07T23:42:01.067Z,26.02
2022-09-07T23:44:30.738Z,31.45
2022-09-07T23:47:00.321Z,27.10
2022-09-07T23:49:29.903Z,25.02
2022-09-07T23:51:59.614Z,26.42
2022-09-07T23:54:29.235Z,28.63
2022-09-07T23:56:58.885Z,27.75
2022-09-07T23:59:28.657Z,29.27
